»·PEaware :: UAL242 KSAN-KSFO

UAL242 :: KSAN-KSFO

FLIGHT INFORMATION

Flight Status: Arrived
Operator:
United Airlines
More flights by this operator :: More flights under this callsign
Pilot: Jordan L. (14859)
Aircraft: BOEING 737-900
(B739)
More flights by this aircraft type
Origin: KSAN San Diego Intl-Lindbergh
United States
Destination: KSFO San Francisco Intl
United States
More flights between these airports :: More routes between these airports
Route: PADRZ2 IKAYE RIZIN SPLNT STOKD SERFR SERFR3
File this flight plan on PilotEdge
Remarks: RMK / POWERED BY SIMBRIEF
Altitude:
(Current/Filed)
34,000ft
Speed:
(Current/Filed)
450kts
Departed: 04-Aug-18 04:30 PM
Arrived: 04-Aug-18 05:37 PM
Distance/Time
Traveled:
388nm/1:07
Distance/Time
To Go:
Arrived

Flight Plot

Page will automatically refresh every two minutes.

Flight plan parsing failed; only flown route is shown


Map Options




Map Legend


Flown Route
Filed Route
Departure Airport
Arrival Airport
Navaid (VOR, NDB)
Fix

Horizontal Profiles

Position Reports

Time Latitude Longitude Heading Altitude Ground
Speed
04-Aug-18 16:12 32.732857 -117.204674 112 23ft 0kts
04-Aug-18 16:13 32.732857 -117.204674 112 23ft 0kts
04-Aug-18 16:14 32.732857 -117.204674 112 23ft 0kts
04-Aug-18 16:15 32.732857 -117.204674 112 23ft 0kts
04-Aug-18 16:16 32.732857 -117.204674 112 23ft 0kts
04-Aug-18 16:17 32.732857 -117.204674 112 23ft 0kts
04-Aug-18 16:18 32.732857 -117.204674 112 23ft 0kts
04-Aug-18 16:19 32.732857 -117.204674 112 23ft 0kts
04-Aug-18 16:20 32.733042 -117.205209 112 23ft 2kts
04-Aug-18 16:21 32.733199 -117.205662 112 23ft 0kts
04-Aug-18 16:22 32.733199 -117.205662 112 23ft 0kts
04-Aug-18 16:23 32.734464 -117.205592 6 23ft 13kts
04-Aug-18 16:24 32.735117 -117.205101 48 23ft 0kts
04-Aug-18 16:25 32.735527 -117.204528 49 23ft 14kts
04-Aug-18 16:26 32.735045 -117.200090 106 23ft 12kts
04-Aug-18 16:27 32.733729 -117.194653 105 23ft 19kts
04-Aug-18 16:28 32.732454 -117.189350 106 23ft 14kts
04-Aug-18 16:29 32.731010 -117.183398 106 23ft 24kts
04-Aug-18 16:30 32.729518 -117.177297 104 23ft 11kts
04-Aug-18 16:31 32.731073 -117.179648 286 23ft 79kts
04-Aug-18 16:32 32.749470 -117.229314 301 2152ft 207kts
04-Aug-18 16:33 32.787793 -117.298536 304 5416ft 272kts
04-Aug-18 16:34 32.834913 -117.373179 307 9311ft 292kts
04-Aug-18 16:35 32.887708 -117.454971 306 11881ft 343kts
04-Aug-18 16:36 32.947526 -117.547950 306 14963ft 361kts
04-Aug-18 16:37 33.009808 -117.645149 305 17820ft 375kts
04-Aug-18 16:38 33.077617 -117.743690 315 20223ft 396kts
04-Aug-18 16:39 33.163094 -117.830556 316 22285ft 413kts
04-Aug-18 16:40 33.248877 -117.925540 311 24086ft 426kts
04-Aug-18 16:41 33.332718 -118.027127 311 25947ft 432kts
04-Aug-18 16:42 33.418297 -118.130275 311 27564ft 439kts
04-Aug-18 16:43 33.504741 -118.233905 311 29326ft 437kts
04-Aug-18 16:44 33.589858 -118.336313 311 31260ft 427kts
04-Aug-18 16:45 33.672697 -118.436361 310 32995ft 419kts
04-Aug-18 16:46 33.753587 -118.534363 310 33903ft 420kts
04-Aug-18 16:47 33.835005 -118.633298 310 33898ft 414kts
04-Aug-18 16:48 33.916105 -118.732120 310 33898ft 414kts
04-Aug-18 16:49 33.997218 -118.830996 310 33902ft 414kts
04-Aug-18 16:50 34.077516 -118.929589 309 33897ft 413kts
04-Aug-18 16:51 34.154057 -119.032241 299 33894ft 406kts
04-Aug-18 16:52 34.213935 -119.147614 297 33895ft 406kts
04-Aug-18 16:53 34.273724 -119.263507 297 33904ft 407kts
04-Aug-18 16:54 34.333300 -119.379770 297 33914ft 407kts
04-Aug-18 16:55 34.392670 -119.496256 297 33921ft 407kts
04-Aug-18 16:56 34.467179 -119.601550 309 33914ft 415kts
04-Aug-18 16:57 34.548099 -119.701220 309 33910ft 415kts
04-Aug-18 16:58 34.628856 -119.801127 309 33911ft 414kts
04-Aug-18 16:59 34.709803 -119.901067 308 33908ft 414kts
04-Aug-18 17:00 34.790186 -120.000744 308 33910ft 413kts
04-Aug-18 17:01 34.870728 -120.100940 308 33916ft 413kts
04-Aug-18 17:02 34.950765 -120.200771 307 33918ft 412kts
04-Aug-18 17:03 35.030347 -120.300708 307 33919ft 411kts
04-Aug-18 17:04 35.110794 -120.399959 310 33913ft 413kts
04-Aug-18 17:05 35.195968 -120.494498 310 33900ft 413kts
04-Aug-18 17:06 35.280717 -120.589169 310 33891ft 412kts
04-Aug-18 17:07 35.365267 -120.684312 309 33891ft 411kts
04-Aug-18 17:08 35.449313 -120.779466 309 33895ft 411kts
04-Aug-18 17:09 35.537440 -120.869675 315 33898ft 416kts
04-Aug-18 17:10 35.630185 -120.954817 314 33900ft 415kts
04-Aug-18 17:11 35.722531 -121.040693 314 33906ft 415kts
04-Aug-18 17:12 35.814510 -121.126303 314 33911ft 416kts
04-Aug-18 17:13 35.906848 -121.212511 313 33919ft 415kts
04-Aug-18 17:14 35.998311 -121.298599 313 33766ft 412kts
04-Aug-18 17:15 36.088383 -121.381680 317 31836ft 399kts
04-Aug-18 17:16 36.182519 -121.454275 319 29028ft 408kts
04-Aug-18 17:17 36.278240 -121.528483 319 26560ft 400kts
04-Aug-18 17:18 36.371201 -121.601336 320 24261ft 389kts
04-Aug-18 17:19 36.461081 -121.672144 320 22184ft 375kts
04-Aug-18 17:20 36.547724 -121.740380 321 20176ft 362kts
04-Aug-18 17:21 36.631327 -121.806591 321 18187ft 350kts
04-Aug-18 17:22 36.712037 -121.870735 322 16172ft 340kts
04-Aug-18 17:23 36.800400 -121.911438 343 14170ft 340kts
04-Aug-18 17:24 36.891553 -121.936128 343 12218ft 330kts
04-Aug-18 17:25 36.979143 -121.962544 339 10301ft 317kts
04-Aug-18 17:26 37.061766 -121.995450 339 8384ft 306kts
04-Aug-18 17:27 37.139177 -122.025985 339 7999ft 273kts
04-Aug-18 17:28 37.210859 -122.054124 338 8002ft 268kts
04-Aug-18 17:29 37.282374 -122.082251 338 7933ft 268kts
04-Aug-18 17:30 37.352320 -122.109811 339 6517ft 261kts
04-Aug-18 17:31 37.410051 -122.130883 341 5368ft 249kts
04-Aug-18 17:32 37.483348 -122.155928 340 4068ft 219kts
04-Aug-18 17:33 37.535194 -122.179069 311 3009ft 178kts
04-Aug-18 17:34 37.553366 -122.219136 295 2438ft 148kts
04-Aug-18 17:35 37.572712 -122.265411 295 1673ft 147kts
04-Aug-18 17:36 37.594266 -122.315856 294 700ft 138kts
04-Aug-18 17:37 37.608705 -122.351103 295 178ft 135kts
04-Aug-18 17:38 37.618955 -122.378065 268 21ft 13kts
04-Aug-18 17:39 37.619510 -122.381917 264 21ft 17kts
04-Aug-18 17:40 37.619210 -122.383536 282 21ft 0kts

Navigation Log

Ident Type
Flight plan parsing failed, navigation log unavailable